Etusivu
METAR-TAF:

METAR-TAF

Lentoasemat :

Jyväskylän lentoasema

Jyväskylä, Suomi

Leveyspiiri: 62-24N, Pituuspiiri: 025-41E, korkeus merenpinnasta: 141 m

Tämänhetkinen sää

Tämä raportti tehtiin 36 minuuttia sitten, kello 22.50 UTC
Tuuli 7 kn pohjoisen/luoteesta
Lämpötila -3°C
Kosteus 93%
Ilmanpaine 1033 hPa
Näkyvyys 10 km tai enemmän
ei pilviä alle 1500 m:ssä eikä cumulonimbus-pilviä

METAR: EFJY 202250Z AUTO 34007KT CAVOK M03/M04 Q1033

Aika: 01:26 (23:26 UTC)

Sääennuste

Tämä raportti tehtiin 2 tuntia ja 59 minuuttia sitten, kello 20.27 UTC
Ennuste voimassa 20. päivästä klo 21 UTC - 21. päivään klo 21 UTC
Tuuli 7 kn pohjoisen/luoteesta
Näkyvyys 10 km tai enemmän
ei pilviä alle 1500 m:ssä eikä cumulonimbus-pilviä

TAF: EFJY 202027Z 2021/2121 33007KT CAVOK

Säähavainnot ja -ennusteet yli 4000 lentoasemalta (METAR- ja TAF-raportit).

Käytössä olevat sääasemat on merkitty karttaan keltaisilla ja punaisilla pisteillä.

Aseta hiiri pisteen päälle nähdäksesi sääaseman nimen.

Klikkaa sitten nähdäksesi säähavainnot ja -ennusteet.

Kartan vaihtaminen: klikkaa mustalla rastilla varustettuja vihreitä pisteitä, niin voit zoomata sisään; viivalla varustettua vihreää pistettä, niin voit zoomata ulos tai vihreitä nuolia, niin pääset viereisille kartoille.


METAR-TAF: